sensor_id;sensor_type;location;lat;lon;timestamp;P1;durP1;ratioP1;P2;durP2;ratioP2
58878;SDS011;44660;42.664;23.266;2023-09-30T00:02:21;10.82;;;5.05;;
58878;SDS011;44660;42.664;23.266;2023-09-30T00:04:47;12.13;;;5.28;;
58878;SDS011;44660;42.664;23.266;2023-09-30T00:07:12;16.60;;;5.28;;
58878;SDS011;44660;42.664;23.266;2023-09-30T00:09:38;11.52;;;4.68;;
58878;SDS011;44660;42.664;23.266;2023-09-30T00:12:03;9.45;;;5.63;;
58878;SDS011;44660;42.664;23.266;2023-09-30T00:14:29;10.68;;;5.20;;
58878;SDS011;44660;42.664;23.266;2023-09-30T00:16:55;13.57;;;5.20;;
58878;SDS011;44660;42.664;23.266;2023-09-30T00:19:21;12.60;;;4.97;;
58878;SDS011;44660;42.664;23.266;2023-09-30T00:21:47;12.35;;;5.45;;
58878;SDS011;44660;42.664;23.266;2023-09-30T00:24:13;10.43;;;5.25;;
58878;SDS011;44660;42.664;23.266;2023-09-30T00:26:39;10.93;;;5.47;;
58878;SDS011;44660;42.664;23.266;2023-09-30T00:29:04;10.40;;;5.78;;
58878;SDS011;44660;42.664;23.266;2023-09-30T00:31:30;14.10;;;5.28;;
58878;SDS011;44660;42.664;23.266;2023-09-30T00:33:56;17.05;;;5.50;;
58878;SDS011;44660;42.664;23.266;2023-09-30T00:36:22;13.25;;;5.65;;
58878;SDS011;44660;42.664;23.266;2023-09-30T00:38:47;13.45;;;5.07;;
58878;SDS011;44660;42.664;23.266;2023-09-30T00:41:13;10.55;;;5.50;;
58878;SDS011;44660;42.664;23.266;2023-09-30T00:43:39;9.75;;;5.13;;
58878;SDS011;44660;42.664;23.266;2023-09-30T00:46:06;8.27;;;5.47;;
58878;SDS011;44660;42.664;23.266;2023-09-30T00:48:43;8.82;;;4.88;;
58878;SDS011;44660;42.664;23.266;2023-09-30T00:51:09;9.38;;;5.38;;
58878;SDS011;44660;42.664;23.266;2023-09-30T00:53:34;12.20;;;5.78;;
58878;SDS011;44660;42.664;23.266;2023-09-30T00:56:00;11.55;;;5.57;;
58878;SDS011;44660;42.664;23.266;2023-09-30T00:58:25;9.45;;;5.53;;
58878;SDS011;44660;42.664;23.266;2023-09-30T01:00:54;12.10;;;5.55;;
58878;SDS011;44660;42.664;23.266;2023-09-30T01:03:22;9.85;;;5.05;;
58878;SDS011;44660;42.664;23.266;2023-09-30T01:05:48;13.23;;;5.20;;
58878;SDS011;44660;42.664;23.266;2023-09-30T01:08:14;16.42;;;5.88;;
58878;SDS011;44660;42.664;23.266;2023-09-30T01:10:41;10.13;;;4.82;;
58878;SDS011;44660;42.664;23.266;2023-09-30T01:13:07;7.50;;;4.97;;
58878;SDS011;44660;42.664;23.266;2023-09-30T01:15:32;11.73;;;5.18;;
58878;SDS011;44660;42.664;23.266;2023-09-30T01:17:58;7.78;;;5.22;;
58878;SDS011;44660;42.664;23.266;2023-09-30T01:20:24;12.48;;;5.22;;
58878;SDS011;44660;42.664;23.266;2023-09-30T01:22:49;11.32;;;5.60;;
58878;SDS011;44660;42.664;23.266;2023-09-30T01:25:15;13.10;;;5.15;;
58878;SDS011;44660;42.664;23.266;2023-09-30T01:27:41;10.07;;;5.30;;
58878;SDS011;44660;42.664;23.266;2023-09-30T01:30:06;11.43;;;5.60;;
58878;SDS011;44660;42.664;23.266;2023-09-30T01:35:01;13.38;;;5.10;;
58878;SDS011;44660;42.664;23.266;2023-09-30T01:37:27;10.88;;;5.43;;
58878;SDS011;44660;42.664;23.266;2023-09-30T01:39:53;14.98;;;5.32;;
58878;SDS011;44660;42.664;23.266;2023-09-30T01:42:20;11.55;;;5.43;;
58878;SDS011;44660;42.664;23.266;2023-09-30T01:44:45;11.80;;;5.35;;
58878;SDS011;44660;42.664;23.266;2023-09-30T01:47:11;11.85;;;5.55;;
58878;SDS011;44660;42.664;23.266;2023-09-30T01:49:37;7.90;;;4.88;;
58878;SDS011;44660;42.664;23.266;2023-09-30T01:52:02;8.38;;;4.88;;
58878;SDS011;44660;42.664;23.266;2023-09-30T01:54:28;13.45;;;5.47;;
58878;SDS011;44660;42.664;23.266;2023-09-30T01:56:53;13.23;;;5.57;;
58878;SDS011;44660;42.664;23.266;2023-09-30T01:59:19;15.65;;;5.38;;
58878;SDS011;44660;42.664;23.266;2023-09-30T02:01:44;10.95;;;5.63;;
58878;SDS011;44660;42.664;23.266;2023-09-30T02:04:11;9.88;;;4.95;;
58878;SDS011;44660;42.664;23.266;2023-09-30T02:06:40;13.60;;;5.20;;
58878;SDS011;44660;42.664;23.266;2023-09-30T02:09:06;12.15;;;5.40;;
58878;SDS011;44660;42.664;23.266;2023-09-30T02:11:33;9.68;;;5.53;;
58878;SDS011;44660;42.664;23.266;2023-09-30T02:14:00;13.80;;;5.80;;
58878;SDS011;44660;42.664;23.266;2023-09-30T02:16:27;11.20;;;5.85;;
58878;SDS011;44660;42.664;23.266;2023-09-30T02:18:52;10.13;;;5.53;;
58878;SDS011;44660;42.664;23.266;2023-09-30T02:21:18;13.23;;;5.28;;
58878;SDS011;44660;42.664;23.266;2023-09-30T02:23:44;9.18;;;5.20;;
58878;SDS011;44660;42.664;23.266;2023-09-30T02:26:13;13.77;;;5.20;;
58878;SDS011;44660;42.664;23.266;2023-09-30T02:28:39;10.77;;;4.93;;
58878;SDS011;44660;42.664;23.266;2023-09-30T02:31:05;10.57;;;5.68;;
58878;SDS011;44660;42.664;23.266;2023-09-30T02:33:32;10.38;;;5.22;;
58878;SDS011;44660;42.664;23.266;2023-09-30T02:36:00;7.18;;;4.63;;
58878;SDS011;44660;42.664;23.266;2023-09-30T02:38:26;8.18;;;4.95;;
58878;SDS011;44660;42.664;23.266;2023-09-30T02:40:51;10.38;;;5.00;;
58878;SDS011;44660;42.664;23.266;2023-09-30T02:43:17;8.90;;;5.55;;
58878;SDS011;44660;42.664;23.266;2023-09-30T02:45:42;15.00;;;5.57;;
58878;SDS011;44660;42.664;23.266;2023-09-30T02:48:08;13.57;;;5.40;;
58878;SDS011;44660;42.664;23.266;2023-09-30T02:50:34;13.65;;;5.68;;
58878;SDS011;44660;42.664;23.266;2023-09-30T02:52:59;15.77;;;5.47;;
58878;SDS011;44660;42.664;23.266;2023-09-30T02:55:25;13.20;;;5.70;;
58878;SDS011;44660;42.664;23.266;2023-09-30T02:57:50;9.32;;;5.38;;
58878;SDS011;44660;42.664;23.266;2023-09-30T03:00:18;9.38;;;4.93;;
58878;SDS011;44660;42.664;23.266;2023-09-30T03:02:49;9.30;;;5.05;;
58878;SDS011;44660;42.664;23.266;2023-09-30T03:05:16;12.43;;;5.47;;
58878;SDS011;44660;42.664;23.266;2023-09-30T03:07:42;11.32;;;5.40;;
58878;SDS011;44660;42.664;23.266;2023-09-30T03:10:08;11.70;;;5.30;;
58878;SDS011;44660;42.664;23.266;2023-09-30T03:12:34;10.50;;;5.88;;
58878;SDS011;44660;42.664;23.266;2023-09-30T03:15:00;15.18;;;5.35;;
58878;SDS011;44660;42.664;23.266;2023-09-30T03:17:29;10.23;;;5.55;;
58878;SDS011;44660;42.664;23.266;2023-09-30T03:19:58;15.50;;;5.72;;
58878;SDS011;44660;42.664;23.266;2023-09-30T03:22:24;12.60;;;5.20;;
58878;SDS011;44660;42.664;23.266;2023-09-30T03:24:52;16.92;;;5.80;;
58878;SDS011;44660;42.664;23.266;2023-09-30T03:27:19;11.00;;;5.68;;
58878;SDS011;44660;42.664;23.266;2023-09-30T03:29:45;9.00;;;5.93;;
58878;SDS011;44660;42.664;23.266;2023-09-30T03:32:11;11.38;;;5.40;;
58878;SDS011;44660;42.664;23.266;2023-09-30T03:34:36;15.20;;;5.88;;
58878;SDS011;44660;42.664;23.266;2023-09-30T03:37:02;12.35;;;5.40;;
58878;SDS011;44660;42.664;23.266;2023-09-30T03:39:27;8.98;;;5.72;;
58878;SDS011;44660;42.664;23.266;2023-09-30T03:41:54;58.33;;;32.75;;
58878;SDS011;44660;42.664;23.266;2023-09-30T03:44:21;67.45;;;41.00;;
58878;SDS011;44660;42.664;23.266;2023-09-30T03:46:48;32.90;;;15.15;;
58878;SDS011;44660;42.664;23.266;2023-09-30T03:49:13;17.02;;;10.07;;
58878;SDS011;44660;42.664;23.266;2023-09-30T03:51:39;14.13;;;7.15;;
58878;SDS011;44660;42.664;23.266;2023-09-30T03:54:04;11.45;;;6.43;;
58878;SDS011;44660;42.664;23.266;2023-09-30T03:56:31;10.80;;;5.75;;
58878;SDS011;44660;42.664;23.266;2023-09-30T03:58:57;11.40;;;6.03;;
58878;SDS011;44660;42.664;23.266;2023-09-30T04:01:23;16.88;;;8.27;;
58878;SDS011;44660;42.664;23.266;2023-09-30T04:03:50;31.35;;;16.17;;
58878;SDS011;44660;42.664;23.266;2023-09-30T04:06:19;21.65;;;10.75;;
58878;SDS011;44660;42.664;23.266;2023-09-30T04:08:45;24.73;;;14.75;;
58878;SDS011;44660;42.664;23.266;2023-09-30T04:11:10;20.02;;;7.80;;
58878;SDS011;44660;42.664;23.266;2023-09-30T04:13:39;10.88;;;6.10;;
58878;SDS011;44660;42.664;23.266;2023-09-30T04:16:05;17.17;;;6.20;;
58878;SDS011;44660;42.664;23.266;2023-09-30T04:18:30;10.98;;;5.78;;
58878;SDS011;44660;42.664;23.266;2023-09-30T04:20:56;13.65;;;5.60;;
58878;SDS011;44660;42.664;23.266;2023-09-30T04:23:22;12.45;;;5.45;;
58878;SDS011;44660;42.664;23.266;2023-09-30T04:25:47;12.65;;;6.10;;
58878;SDS011;44660;42.664;23.266;2023-09-30T04:28:14;11.82;;;5.60;;
58878;SDS011;44660;42.664;23.266;2023-09-30T04:30:41;11.40;;;6.22;;
58878;SDS011;44660;42.664;23.266;2023-09-30T04:33:07;15.25;;;5.80;;
58878;SDS011;44660;42.664;23.266;2023-09-30T04:35:33;11.18;;;5.30;;
58878;SDS011;44660;42.664;23.266;2023-09-30T04:38:00;13.63;;;5.32;;
58878;SDS011;44660;42.664;23.266;2023-09-30T04:40:26;11.60;;;5.43;;
58878;SDS011;44660;42.664;23.266;2023-09-30T04:42:52;9.88;;;5.47;;
58878;SDS011;44660;42.664;23.266;2023-09-30T04:45:20;14.57;;;5.97;;
58878;SDS011;44660;42.664;23.266;2023-09-30T04:47:46;22.85;;;13.65;;
58878;SDS011;44660;42.664;23.266;2023-09-30T04:50:14;40.63;;;20.77;;
58878;SDS011;44660;42.664;23.266;2023-09-30T04:52:41;17.17;;;7.95;;
58878;SDS011;44660;42.664;23.266;2023-09-30T04:55:07;42.03;;;24.42;;
58878;SDS011;44660;42.664;23.266;2023-09-30T04:57:33;17.27;;;9.23;;
58878;SDS011;44660;42.664;23.266;2023-09-30T04:59:59;13.43;;;7.57;;
58878;SDS011;44660;42.664;23.266;2023-09-30T05:02:24;17.27;;;6.25;;
58878;SDS011;44660;42.664;23.266;2023-09-30T05:04:51;17.75;;;6.35;;
58878;SDS011;44660;42.664;23.266;2023-09-30T05:07:17;12.93;;;5.80;;
58878;SDS011;44660;42.664;23.266;2023-09-30T05:09:42;18.48;;;6.80;;
58878;SDS011;44660;42.664;23.266;2023-09-30T05:12:08;15.45;;;6.80;;
58878;SDS011;44660;42.664;23.266;2023-09-30T05:14:35;16.05;;;6.30;;
58878;SDS011;44660;42.664;23.266;2023-09-30T05:17:01;13.25;;;6.40;;
58878;SDS011;44660;42.664;23.266;2023-09-30T05:19:27;15.80;;;6.63;;
58878;SDS011;44660;42.664;23.266;2023-09-30T05:21:52;14.45;;;7.10;;
58878;SDS011;44660;42.664;23.266;2023-09-30T05:24:18;18.48;;;7.32;;
58878;SDS011;44660;42.664;23.266;2023-09-30T05:26:44;18.23;;;7.30;;
58878;SDS011;44660;42.664;23.266;2023-09-30T05:29:10;18.23;;;8.50;;
58878;SDS011;44660;42.664;23.266;2023-09-30T05:31:35;17.30;;;7.22;;
58878;SDS011;44660;42.664;23.266;2023-09-30T05:34:01;16.30;;;8.00;;
58878;SDS011;44660;42.664;23.266;2023-09-30T05:36:27;21.35;;;7.15;;
58878;SDS011;44660;42.664;23.266;2023-09-30T05:38:54;17.77;;;6.85;;
58878;SDS011;44660;42.664;23.266;2023-09-30T05:41:20;11.68;;;6.57;;
58878;SDS011;44660;42.664;23.266;2023-09-30T05:43:46;20.27;;;7.22;;
58878;SDS011;44660;42.664;23.266;2023-09-30T05:46:12;21.10;;;7.75;;
58878;SDS011;44660;42.664;23.266;2023-09-30T05:48:38;22.35;;;7.38;;
58878;SDS011;44660;42.664;23.266;2023-09-30T05:51:06;14.27;;;6.93;;
58878;SDS011;44660;42.664;23.266;2023-09-30T05:53:32;14.23;;;7.22;;
58878;SDS011;44660;42.664;23.266;2023-09-30T05:55:58;17.85;;;7.60;;
58878;SDS011;44660;42.664;23.266;2023-09-30T05:58:25;16.70;;;7.43;;
58878;SDS011;44660;42.664;23.266;2023-09-30T06:00:51;26.25;;;15.48;;
58878;SDS011;44660;42.664;23.266;2023-09-30T06:03:18;23.02;;;11.63;;
58878;SDS011;44660;42.664;23.266;2023-09-30T06:05:44;48.13;;;28.67;;
58878;SDS011;44660;42.664;23.266;2023-09-30T06:08:09;39.13;;;18.98;;
58878;SDS011;44660;42.664;23.266;2023-09-30T06:10:39;18.08;;;10.57;;
58878;SDS011;44660;42.664;23.266;2023-09-30T06:13:07;17.73;;;9.88;;
58878;SDS011;44660;42.664;23.266;2023-09-30T06:15:33;15.65;;;8.75;;
58878;SDS011;44660;42.664;23.266;2023-09-30T06:18:01;14.18;;;6.85;;
58878;SDS011;44660;42.664;23.266;2023-09-30T06:20:29;18.40;;;7.18;;
58878;SDS011;44660;42.664;23.266;2023-09-30T06:22:55;17.95;;;7.60;;
58878;SDS011;44660;42.664;23.266;2023-09-30T06:25:21;11.75;;;6.30;;
58878;SDS011;44660;42.664;23.266;2023-09-30T06:27:49;18.60;;;7.05;;
58878;SDS011;44660;42.664;23.266;2023-09-30T06:30:15;16.10;;;6.75;;
58878;SDS011;44660;42.664;23.266;2023-09-30T06:32:41;19.83;;;6.85;;
58878;SDS011;44660;42.664;23.266;2023-09-30T06:35:08;18.70;;;7.53;;
58878;SDS011;44660;42.664;23.266;2023-09-30T06:40:03;15.60;;;7.35;;
58878;SDS011;44660;42.664;23.266;2023-09-30T06:42:30;13.93;;;7.25;;
58878;SDS011;44660;42.664;23.266;2023-09-30T06:44:56;14.82;;;6.70;;
58878;SDS011;44660;42.664;23.266;2023-09-30T06:47:22;18.65;;;7.40;;
58878;SDS011;44660;42.664;23.266;2023-09-30T06:49:49;19.25;;;7.13;;
58878;SDS011;44660;42.664;23.266;2023-09-30T06:52:14;13.68;;;6.93;;
58878;SDS011;44660;42.664;23.266;2023-09-30T06:54:40;11.02;;;6.25;;
58878;SDS011;44660;42.664;23.266;2023-09-30T06:57:05;18.77;;;7.78;;
58878;SDS011;44660;42.664;23.266;2023-09-30T06:59:33;11.63;;;6.53;;
58878;SDS011;44660;42.664;23.266;2023-09-30T07:01:59;16.85;;;7.20;;
58878;SDS011;44660;42.664;23.266;2023-09-30T07:04:24;15.68;;;6.60;;
58878;SDS011;44660;42.664;23.266;2023-09-30T07:06:52;19.35;;;7.15;;
58878;SDS011;44660;42.664;23.266;2023-09-30T07:09:18;18.48;;;7.22;;
58878;SDS011;44660;42.664;23.266;2023-09-30T07:11:44;23.77;;;7.78;;
58878;SDS011;44660;42.664;23.266;2023-09-30T07:14:10;22.38;;;8.25;;
58878;SDS011;44660;42.664;23.266;2023-09-30T07:16:36;19.65;;;7.40;;
58878;SDS011;44660;42.664;23.266;2023-09-30T07:19:01;17.30;;;7.50;;
58878;SDS011;44660;42.664;23.266;2023-09-30T07:21:27;17.90;;;7.30;;
58878;SDS011;44660;42.664;23.266;2023-09-30T07:23:53;18.48;;;6.55;;
58878;SDS011;44660;42.664;23.266;2023-09-30T07:26:23;13.55;;;6.53;;
58878;SDS011;44660;42.664;23.266;2023-09-30T07:28:49;15.65;;;6.28;;
58878;SDS011;44660;42.664;23.266;2023-09-30T07:31:15;17.13;;;5.70;;
58878;SDS011;44660;42.664;23.266;2023-09-30T07:33:40;20.10;;;5.90;;
58878;SDS011;44660;42.664;23.266;2023-09-30T07:36:06;18.02;;;5.60;;
58878;SDS011;44660;42.664;23.266;2023-09-30T07:38:31;15.10;;;5.57;;
58878;SDS011;44660;42.664;23.266;2023-09-30T07:40:57;13.90;;;5.80;;
58878;SDS011;44660;42.664;23.266;2023-09-30T07:43:22;16.17;;;5.22;;
58878;SDS011;44660;42.664;23.266;2023-09-30T07:45:48;13.00;;;5.00;;
58878;SDS011;44660;42.664;23.266;2023-09-30T07:48:13;14.77;;;5.22;;
58878;SDS011;44660;42.664;23.266;2023-09-30T07:50:39;16.50;;;4.45;;
58878;SDS011;44660;42.664;23.266;2023-09-30T07:53:06;15.25;;;4.63;;
58878;SDS011;44660;42.664;23.266;2023-09-30T07:55:31;12.82;;;4.68;;
58878;SDS011;44660;42.664;23.266;2023-09-30T07:57:56;8.23;;;4.50;;
58878;SDS011;44660;42.664;23.266;2023-09-30T08:00:24;10.43;;;4.65;;
58878;SDS011;44660;42.664;23.266;2023-09-30T08:02:49;14.30;;;4.50;;
58878;SDS011;44660;42.664;23.266;2023-09-30T08:05:16;10.30;;;4.38;;
58878;SDS011;44660;42.664;23.266;2023-09-30T08:07:42;20.35;;;4.65;;
58878;SDS011;44660;42.664;23.266;2023-09-30T08:10:07;11.82;;;4.35;;
58878;SDS011;44660;42.664;23.266;2023-09-30T08:12:38;11.93;;;3.85;;
58878;SDS011;44660;42.664;23.266;2023-09-30T08:15:10;10.32;;;4.13;;
58878;SDS011;44660;42.664;23.266;2023-09-30T08:17:39;9.15;;;4.60;;
58878;SDS011;44660;42.664;23.266;2023-09-30T08:20:05;10.43;;;4.13;;
58878;SDS011;44660;42.664;23.266;2023-09-30T08:22:31;9.68;;;4.20;;
58878;SDS011;44660;42.664;23.266;2023-09-30T08:24:56;11.35;;;4.22;;
58878;SDS011;44660;42.664;23.266;2023-09-30T08:27:22;18.70;;;4.80;;
58878;SDS011;44660;42.664;23.266;2023-09-30T08:29:49;11.03;;;4.90;;
58878;SDS011;44660;42.664;23.266;2023-09-30T08:32:14;10.38;;;4.50;;
58878;SDS011;44660;42.664;23.266;2023-09-30T08:34:40;16.70;;;4.80;;
58878;SDS011;44660;42.664;23.266;2023-09-30T08:37:05;11.00;;;4.78;;
58878;SDS011;44660;42.664;23.266;2023-09-30T08:39:30;12.10;;;4.78;;
58878;SDS011;44660;42.664;23.266;2023-09-30T08:41:56;17.95;;;5.32;;
58878;SDS011;44660;42.664;23.266;2023-09-30T08:44:21;13.00;;;4.85;;
58878;SDS011;44660;42.664;23.266;2023-09-30T08:46:47;12.18;;;4.65;;
58878;SDS011;44660;42.664;23.266;2023-09-30T08:49:15;11.00;;;4.82;;
58878;SDS011;44660;42.664;23.266;2023-09-30T08:51:43;8.85;;;4.82;;
58878;SDS011;44660;42.664;23.266;2023-09-30T08:54:08;9.32;;;4.97;;
58878;SDS011;44660;42.664;23.266;2023-09-30T08:56:34;9.65;;;5.20;;
58878;SDS011;44660;42.664;23.266;2023-09-30T08:59:01;13.23;;;5.75;;
58878;SDS011;44660;42.664;23.266;2023-09-30T09:01:28;16.25;;;5.85;;
58878;SDS011;44660;42.664;23.266;2023-09-30T09:03:55;12.25;;;5.38;;
58878;SDS011;44660;42.664;23.266;2023-09-30T09:06:21;8.70;;;5.00;;
58878;SDS011;44660;42.664;23.266;2023-09-30T09:08:48;10.25;;;6.43;;
58878;SDS011;44660;42.664;23.266;2023-09-30T09:11:13;13.50;;;5.75;;
58878;SDS011;44660;42.664;23.266;2023-09-30T09:13:50;13.00;;;5.70;;
58878;SDS011;44660;42.664;23.266;2023-09-30T09:16:20;16.20;;;5.57;;
58878;SDS011;44660;42.664;23.266;2023-09-30T09:18:46;15.70;;;6.00;;
58878;SDS011;44660;42.664;23.266;2023-09-30T09:21:16;12.13;;;6.68;;
58878;SDS011;44660;42.664;23.266;2023-09-30T09:23:45;13.90;;;6.30;;
58878;SDS011;44660;42.664;23.266;2023-09-30T09:26:12;13.48;;;6.57;;
58878;SDS011;44660;42.664;23.266;2023-09-30T09:28:58;9.05;;;6.28;;
58878;SDS011;44660;42.664;23.266;2023-09-30T09:31:29;9.25;;;5.75;;
58878;SDS011;44660;42.664;23.266;2023-09-30T09:33:56;12.57;;;4.93;;
58878;SDS011;44660;42.664;23.266;2023-09-30T09:36:38;10.00;;;5.07;;
58878;SDS011;44660;42.664;23.266;2023-09-30T09:39:04;13.75;;;4.70;;
58878;SDS011;44660;42.664;23.266;2023-09-30T09:41:29;8.25;;;5.07;;
58878;SDS011;44660;42.664;23.266;2023-09-30T09:43:54;10.18;;;5.10;;
58878;SDS011;44660;42.664;23.266;2023-09-30T09:46:24;11.77;;;5.65;;
58878;SDS011;44660;42.664;23.266;2023-09-30T09:48:50;16.90;;;5.00;;
58878;SDS011;44660;42.664;23.266;2023-09-30T09:51:18;9.73;;;4.93;;
58878;SDS011;44660;42.664;23.266;2023-09-30T09:53:45;9.23;;;4.68;;
58878;SDS011;44660;42.664;23.266;2023-09-30T09:56:14;7.95;;;4.80;;
58878;SDS011;44660;42.664;23.266;2023-09-30T09:58:40;8.07;;;4.55;;
58878;SDS011;44660;42.664;23.266;2023-09-30T10:01:07;9.85;;;4.10;;
58878;SDS011;44660;42.664;23.266;2023-09-30T10:03:35;6.97;;;3.80;;
58878;SDS011;44660;42.664;23.266;2023-09-30T10:06:01;10.10;;;4.22;;
58878;SDS011;44660;42.664;23.266;2023-09-30T10:08:48;11.52;;;4.25;;
58878;SDS011;44660;42.664;23.266;2023-09-30T10:11:19;7.03;;;3.90;;
58878;SDS011;44660;42.664;23.266;2023-09-30T10:13:52;7.10;;;4.40;;
58878;SDS011;44660;42.664;23.266;2023-09-30T10:21:34;12.35;;;4.13;;
58878;SDS011;44660;42.664;23.266;2023-09-30T10:27:27;6.75;;;3.75;;
58878;SDS011;44660;42.664;23.266;2023-09-30T10:29:57;8.68;;;3.50;;
58878;SDS011;44660;42.664;23.266;2023-09-30T10:37:52;8.65;;;4.03;;
58878;SDS011;44660;42.664;23.266;2023-09-30T10:40:47;5.80;;;3.22;;
58878;SDS011;44660;42.664;23.266;2023-09-30T10:45:53;8.57;;;3.20;;
58878;SDS011;44660;42.664;23.266;2023-09-30T10:50:54;9.00;;;3.08;;
58878;SDS011;44660;42.664;23.266;2023-09-30T10:53:21;6.95;;;3.08;;
58878;SDS011;44660;42.664;23.266;2023-09-30T10:55:52;8.32;;;3.35;;
58878;SDS011;44660;42.664;23.266;2023-09-30T10:58:19;10.85;;;3.17;;
58878;SDS011;44660;42.664;23.266;2023-09-30T11:00:54;6.32;;;3.00;;
58878;SDS011;44660;42.664;23.266;2023-09-30T11:03:20;11.75;;;3.42;;
58878;SDS011;44660;42.664;23.266;2023-09-30T11:05:47;9.77;;;3.38;;
58878;SDS011;44660;42.664;23.266;2023-09-30T11:08:13;6.32;;;3.20;;
58878;SDS011;44660;42.664;23.266;2023-09-30T11:10:51;9.15;;;3.38;;
58878;SDS011;44660;42.664;23.266;2023-09-30T11:13:18;6.85;;;3.03;;
58878;SDS011;44660;42.664;23.266;2023-09-30T11:15:44;10.75;;;3.28;;
58878;SDS011;44660;42.664;23.266;2023-09-30T11:18:13;9.52;;;3.08;;
58878;SDS011;44660;42.664;23.266;2023-09-30T11:20:41;9.95;;;3.45;;
58878;SDS011;44660;42.664;23.266;2023-09-30T11:23:07;7.53;;;3.53;;
58878;SDS011;44660;42.664;23.266;2023-09-30T11:25:37;9.82;;;3.28;;
58878;SDS011;44660;42.664;23.266;2023-09-30T11:30:56;12.07;;;3.60;;
58878;SDS011;44660;42.664;23.266;2023-09-30T11:33:23;8.35;;;3.50;;
58878;SDS011;44660;42.664;23.266;2023-09-30T11:36:02;6.50;;;3.38;;
58878;SDS011;44660;42.664;23.266;2023-09-30T11:38:30;9.07;;;3.78;;
58878;SDS011;44660;42.664;23.266;2023-09-30T11:41:01;8.98;;;3.40;;
58878;SDS011;44660;42.664;23.266;2023-09-30T11:43:29;8.18;;;4.00;;
58878;SDS011;44660;42.664;23.266;2023-09-30T11:46:05;7.78;;;3.80;;
58878;SDS011;44660;42.664;23.266;2023-09-30T11:48:31;4.65;;;3.80;;
58878;SDS011;44660;42.664;23.266;2023-09-30T11:50:58;7.72;;;3.30;;
58878;SDS011;44660;42.664;23.266;2023-09-30T11:53:28;6.95;;;3.30;;
58878;SDS011;44660;42.664;23.266;2023-09-30T11:55:55;6.07;;;3.42;;
58878;SDS011;44660;42.664;23.266;2023-09-30T11:58:23;11.98;;;3.65;;
58878;SDS011;44660;42.664;23.266;2023-09-30T12:00:49;11.82;;;3.70;;
58878;SDS011;44660;42.664;23.266;2023-09-30T12:03:17;3.92;;;3.40;;
58878;SDS011;44660;42.664;23.266;2023-09-30T12:05:42;9.80;;;3.75;;
58878;SDS011;44660;42.664;23.266;2023-09-30T12:08:10;6.82;;;3.70;;
58878;SDS011;44660;42.664;23.266;2023-09-30T12:10:36;6.20;;;4.07;;
58878;SDS011;44660;42.664;23.266;2023-09-30T12:13:01;8.05;;;3.47;;
58878;SDS011;44660;42.664;23.266;2023-09-30T12:15:27;11.10;;;3.97;;
58878;SDS011;44660;42.664;23.266;2023-09-30T12:17:52;6.85;;;3.75;;
58878;SDS011;44660;42.664;23.266;2023-09-30T12:20:18;8.77;;;3.70;;
58878;SDS011;44660;42.664;23.266;2023-09-30T12:22:43;8.30;;;4.00;;
58878;SDS011;44660;42.664;23.266;2023-09-30T12:25:10;5.45;;;3.75;;
58878;SDS011;44660;42.664;23.266;2023-09-30T12:27:35;8.07;;;4.07;;
58878;SDS011;44660;42.664;23.266;2023-09-30T12:30:00;10.63;;;3.88;;
58878;SDS011;44660;42.664;23.266;2023-09-30T12:32:26;12.60;;;3.70;;
58878;SDS011;44660;42.664;23.266;2023-09-30T12:34:54;9.02;;;3.60;;
58878;SDS011;44660;42.664;23.266;2023-09-30T12:37:19;7.72;;;3.75;;
58878;SDS011;44660;42.664;23.266;2023-09-30T12:39:45;10.80;;;3.60;;
58878;SDS011;44660;42.664;23.266;2023-09-30T12:42:10;12.45;;;3.60;;
58878;SDS011;44660;42.664;23.266;2023-09-30T12:44:37;11.50;;;3.85;;
58878;SDS011;44660;42.664;23.266;2023-09-30T12:47:04;12.57;;;4.88;;
58878;SDS011;44660;42.664;23.266;2023-09-30T12:49:30;7.43;;;4.13;;
58878;SDS011;44660;42.664;23.266;2023-09-30T12:51:56;7.20;;;3.92;;
58878;SDS011;44660;42.664;23.266;2023-09-30T12:54:23;7.95;;;4.18;;
58878;SDS011;44660;42.664;23.266;2023-09-30T12:56:49;11.82;;;3.63;;
58878;SDS011;44660;42.664;23.266;2023-09-30T12:59:15;8.30;;;3.90;;
58878;SDS011;44660;42.664;23.266;2023-09-30T13:01:42;8.85;;;3.70;;
58878;SDS011;44660;42.664;23.266;2023-09-30T13:04:08;12.70;;;4.63;;
58878;SDS011;44660;42.664;23.266;2023-09-30T13:06:34;16.33;;;4.20;;
58878;SDS011;44660;42.664;23.266;2023-09-30T13:09:01;7.68;;;4.15;;
58878;SDS011;44660;42.664;23.266;2023-09-30T13:11:28;11.90;;;4.50;;
58878;SDS011;44660;42.664;23.266;2023-09-30T13:13:54;9.27;;;3.80;;
58878;SDS011;44660;42.664;23.266;2023-09-30T13:16:20;8.70;;;4.32;;
58878;SDS011;44660;42.664;23.266;2023-09-30T13:18:45;9.15;;;3.97;;
58878;SDS011;44660;42.664;23.266;2023-09-30T13:21:11;8.70;;;5.15;;
58878;SDS011;44660;42.664;23.266;2023-09-30T13:23:37;28.90;;;17.88;;
58878;SDS011;44660;42.664;23.266;2023-09-30T13:26:03;12.13;;;4.97;;
58878;SDS011;44660;42.664;23.266;2023-09-30T13:28:28;8.60;;;4.43;;
58878;SDS011;44660;42.664;23.266;2023-09-30T13:30:54;10.73;;;4.35;;
58878;SDS011;44660;42.664;23.266;2023-09-30T13:33:20;11.68;;;6.05;;
58878;SDS011;44660;42.664;23.266;2023-09-30T13:35:46;9.40;;;5.85;;
58878;SDS011;44660;42.664;23.266;2023-09-30T13:38:12;11.95;;;5.20;;
58878;SDS011;44660;42.664;23.266;2023-09-30T13:40:37;12.48;;;5.20;;
58878;SDS011;44660;42.664;23.266;2023-09-30T13:43:05;10.05;;;4.45;;
58878;SDS011;44660;42.664;23.266;2023-09-30T13:45:31;15.00;;;4.72;;
58878;SDS011;44660;42.664;23.266;2023-09-30T13:47:56;8.50;;;4.47;;
58878;SDS011;44660;42.664;23.266;2023-09-30T13:50:22;7.45;;;4.60;;
58878;SDS011;44660;42.664;23.266;2023-09-30T13:52:47;9.52;;;4.28;;
58878;SDS011;44660;42.664;23.266;2023-09-30T13:55:13;12.52;;;4.70;;
58878;SDS011;44660;42.664;23.266;2023-09-30T13:57:46;9.85;;;4.45;;
58878;SDS011;44660;42.664;23.266;2023-09-30T14:00:12;15.82;;;9.30;;
58878;SDS011;44660;42.664;23.266;2023-09-30T14:02:38;9.85;;;6.10;;
58878;SDS011;44660;42.664;23.266;2023-09-30T14:05:04;10.75;;;5.80;;
58878;SDS011;44660;42.664;23.266;2023-09-30T14:07:33;11.38;;;3.85;;
58878;SDS011;44660;42.664;23.266;2023-09-30T14:09:59;8.27;;;3.92;;
58878;SDS011;44660;42.664;23.266;2023-09-30T14:12:24;7.43;;;3.92;;
58878;SDS011;44660;42.664;23.266;2023-09-30T14:14:50;10.75;;;4.10;;
58878;SDS011;44660;42.664;23.266;2023-09-30T14:17:16;7.97;;;3.97;;
58878;SDS011;44660;42.664;23.266;2023-09-30T14:19:42;16.23;;;4.57;;
58878;SDS011;44660;42.664;23.266;2023-09-30T14:22:08;8.90;;;4.45;;
58878;SDS011;44660;42.664;23.266;2023-09-30T14:24:34;11.43;;;5.13;;
58878;SDS011;44660;42.664;23.266;2023-09-30T14:27:04;8.30;;;4.97;;
58878;SDS011;44660;42.664;23.266;2023-09-30T14:31:56;7.72;;;3.95;;
58878;SDS011;44660;42.664;23.266;2023-09-30T14:34:22;8.73;;;4.38;;
58878;SDS011;44660;42.664;23.266;2023-09-30T14:36:48;7.18;;;4.30;;
58878;SDS011;44660;42.664;23.266;2023-09-30T14:39:14;13.38;;;4.35;;
58878;SDS011;44660;42.664;23.266;2023-09-30T14:41:41;8.23;;;4.07;;
58878;SDS011;44660;42.664;23.266;2023-09-30T14:46:37;11.10;;;5.40;;
58878;SDS011;44660;42.664;23.266;2023-09-30T14:49:03;14.27;;;5.78;;
58878;SDS011;44660;42.664;23.266;2023-09-30T14:51:28;8.05;;;4.80;;
58878;SDS011;44660;42.664;23.266;2023-09-30T14:53:54;9.57;;;4.68;;
58878;SDS011;44660;42.664;23.266;2023-09-30T14:56:19;6.95;;;3.83;;